createdAt,value
2022-10-01T00:00:48.959Z,100030.27
2022-10-01T00:04:41.363Z,100027.13
2022-10-01T00:08:08.594Z,100029.95
2022-10-01T00:10:36.395Z,100032.05
2022-10-01T00:13:03.948Z,100036.45
2022-10-01T00:15:30.875Z,100041.52
2022-10-01T00:17:57.957Z,100041.98
2022-10-01T00:21:01.821Z,100044.73
2022-10-01T00:24:49.608Z,100047.33
2022-10-01T00:27:16.584Z,100048.67
2022-10-01T00:29:44.863Z,100043.74
2022-10-01T00:32:33.293Z,100042.37
2022-10-01T00:36:20.180Z,100037.46
2022-10-01T00:38:47.936Z,100039.77
2022-10-01T00:41:16.654Z,100043.45
2022-10-01T00:43:55.277Z,100041.84
2022-10-01T00:46:29.081Z,100036.73
2022-10-01T00:49:02.152Z,100035.47
2022-10-01T00:51:34.510Z,100045.45
2022-10-01T00:54:11.134Z,100046.70
2022-10-01T00:56:38.636Z,100039.66
2022-10-01T00:59:06.734Z,100035.89
2022-10-01T01:01:36.124Z,100032.01
2022-10-01T01:04:03.476Z,100027.84
2022-10-01T01:07:33.842Z,100033.02
2022-10-01T01:11:24.587Z,100030.15
2022-10-01T01:14:46.059Z,100046.78
2022-10-01T01:18:39.052Z,100043.36
2022-10-01T01:21:32.356Z,100037.73
2022-10-01T01:24:05.062Z,100033.67
2022-10-01T01:26:32.101Z,100029.39
2022-10-01T01:30:02.987Z,100031.98
2022-10-01T01:33:59.306Z,100028.86
2022-10-01T01:37:26.334Z,100037.34
2022-10-01T01:40:37.164Z,100042.70
2022-10-01T01:44:12.943Z,100039.17
2022-10-01T01:46:43.275Z,100039.17
2022-10-01T01:49:11.085Z,100039.95
2022-10-01T01:52:00.487Z,100044.41
2022-10-01T01:54:29.061Z,100047.64
2022-10-01T01:56:58.606Z,100048.84
2022-10-01T01:59:27.267Z,100054.59
2022-10-01T02:01:54.283Z,100053.95
2022-10-01T02:04:26.787Z,100057.21
2022-10-01T02:07:55.874Z,100055.13
2022-10-01T02:11:43.857Z,100060.78
2022-10-01T02:15:43.444Z,100063.38
2022-10-01T02:19:46.466Z,100062.23
2022-10-01T02:26:29.580Z,100057.80
2022-10-01T02:29:05.057Z,100064.86
2022-10-01T02:31:33.233Z,100068.17
2022-10-01T02:34:02.756Z,100066.63
2022-10-01T02:37:19.540Z,100052.03
2022-10-01T02:42:30.560Z,100068.34
2022-10-01T02:48:37.052Z,100074.82
2022-10-01T02:52:35.093Z,100078.34
2022-10-01T02:55:56.688Z,100079.58
2022-10-01T02:58:25.354Z,100076.73
2022-10-01T03:01:37.767Z,100058.39
2022-10-01T03:05:26.848Z,100079.63
2022-10-01T03:08:51.764Z,100077.23
2022-10-01T03:11:21.379Z,100079.46
2022-10-01T03:13:49.968Z,100077.92
2022-10-01T03:16:18.278Z,100073.59
2022-10-01T03:18:46.712Z,100075.29
2022-10-01T03:21:14.998Z,100072.39
2022-10-01T03:23:43.278Z,100071.89
2022-10-01T03:27:00.211Z,100071.04
2022-10-01T03:30:49.138Z,100077.10
2022-10-01T03:33:17.462Z,100074.84
2022-10-01T03:35:45.718Z,100073.86
2022-10-01T03:38:14.051Z,100076.60
2022-10-01T03:40:42.291Z,100070.27
2022-10-01T03:44:10.985Z,100067.06
2022-10-01T03:47:58.844Z,100061.52
2022-10-01T03:51:06.821Z,100053.13
2022-10-01T03:54:16.863Z,100050.34
2022-10-01T03:58:05.767Z,100045.20
2022-10-01T04:01:54.820Z,100061.25
2022-10-01T04:05:33.217Z,100062.66
2022-10-01T04:09:01.624Z,100070.59
2022-10-01T04:12:14.481Z,100076.34
2022-10-01T04:15:25.207Z,100082.50
2022-10-01T04:17:53.607Z,100087.98
2022-10-01T04:20:22.229Z,100090.58
2022-10-01T04:23:10.864Z,100090.71
2022-10-01T04:26:42.850Z,100092.34
2022-10-01T04:30:31.826Z,100091.41
2022-10-01T04:34:01.473Z,100084.38
2022-10-01T04:37:30.515Z,100080.69
2022-10-01T04:39:58.801Z,100075.17
2022-10-01T04:42:26.972Z,100076.60
2022-10-01T04:44:55.263Z,100077.33
2022-10-01T04:47:23.997Z,100080.90
2022-10-01T04:49:52.132Z,100085.36
2022-10-01T04:52:44.650Z,100086.80
2022-10-01T04:55:13.929Z,100091.77
2022-10-01T04:57:42.827Z,100101.44
2022-10-01T05:00:13.985Z,100087.56
2022-10-01T05:02:46.013Z,100104.39
2022-10-01T05:05:14.346Z,100095.31
2022-10-01T05:07:43.054Z,100095.52
2022-10-01T05:10:18.545Z,100094.55
2022-10-01T05:12:47.989Z,100099.10
2022-10-01T05:15:16.979Z,100104.48
2022-10-01T05:17:46.821Z,100103.27
2022-10-01T05:20:20.453Z,100099.41
2022-10-01T05:22:52.339Z,100110.04
2022-10-01T05:25:20.592Z,100117.80
2022-10-01T05:28:55.894Z,100116.53
2022-10-01T05:31:24.721Z,100107.05
2022-10-01T05:33:53.192Z,100108.30
2022-10-01T05:36:21.468Z,100102.33
2022-10-01T05:38:49.622Z,100106.08
2022-10-01T05:41:18.117Z,100110.95
2022-10-01T05:45:06.835Z,100111.85
2022-10-01T05:48:37.983Z,100109.75
2022-10-01T05:51:08.396Z,100107.96
2022-10-01T05:54:37.374Z,100103.41
2022-10-01T05:57:54.981Z,100106.06
2022-10-01T06:00:23.671Z,100102.55
2022-10-01T06:02:53.271Z,100101.52
2022-10-01T06:05:22.029Z,100102.95
2022-10-01T06:07:50.753Z,100094.15
2022-10-01T06:11:15.759Z,100104.15
2022-10-01T06:14:46.355Z,100101.70
2022-10-01T06:17:59.053Z,100100.17
2022-10-01T06:21:29.757Z,100096.82
2022-10-01T06:24:46.570Z,100095.55
2022-10-01T06:27:14.701Z,100085.05
2022-10-01T06:29:42.851Z,100097.54
2022-10-01T06:32:14.328Z,100099.89
2022-10-01T06:35:31.233Z,100099.77
2022-10-01T06:38:49.083Z,100106.40
2022-10-01T06:42:07.126Z,100113.90
2022-10-01T06:44:35.503Z,100111.84
2022-10-01T06:47:03.711Z,100108.64
2022-10-01T06:49:32.171Z,100115.20
2022-10-01T06:52:19.421Z,100122.44
2022-10-01T06:54:47.632Z,100122.40
2022-10-01T06:57:15.893Z,100125.71
2022-10-01T07:00:16.551Z,100125.24
2022-10-01T07:02:45.125Z,100127.22
2022-10-01T07:05:13.492Z,100131.06
2022-10-01T07:07:42.083Z,100130.36
2022-10-01T07:10:11.841Z,100134.79
2022-10-01T07:13:20.475Z,100131.08
2022-10-01T07:17:08.877Z,100131.14
2022-10-01T07:20:19.427Z,100127.44
2022-10-01T07:22:48.954Z,100125.34
2022-10-01T07:26:01.060Z,100120.32
2022-10-01T07:29:50.320Z,100108.55
2022-10-01T07:33:14.617Z,100105.91
2022-10-01T07:35:42.980Z,100101.21
2022-10-01T07:38:11.229Z,100096.77
2022-10-01T07:40:39.537Z,100098.35
2022-10-01T07:44:08.511Z,100092.86
2022-10-01T07:47:27.709Z,100099.65
2022-10-01T07:50:47.748Z,100099.23
2022-10-01T07:53:52.323Z,100089.05
2022-10-01T07:56:20.570Z,100076.45
2022-10-01T07:58:48.956Z,100075.51
2022-10-01T08:01:18.066Z,100070.48
2022-10-01T08:03:52.065Z,100075.42
2022-10-01T08:06:25.332Z,100056.64
2022-10-01T08:08:55.027Z,100075.33
2022-10-01T08:11:24.837Z,100075.13
2022-10-01T08:13:56.095Z,100075.16
2022-10-01T08:16:24.503Z,100069.78
2022-10-01T08:18:55.533Z,100067.91
2022-10-01T08:22:03.868Z,100063.84
2022-10-01T08:24:52.426Z,100057.64
2022-10-01T08:27:33.473Z,100053.60
2022-10-01T08:31:03.407Z,100049.05
2022-10-01T08:34:39.862Z,100043.20
2022-10-01T08:37:55.428Z,100045.95
2022-10-01T08:41:31.013Z,100042.89
2022-10-01T08:44:28.875Z,100042.08
2022-10-01T08:47:10.584Z,100039.88
2022-10-01T08:49:50.825Z,100029.10
2022-10-01T08:53:03.038Z,100023.70
2022-10-01T08:55:41.432Z,100015.93
2022-10-01T08:58:50.779Z,100012.41
2022-10-01T09:01:39.434Z,100002.98
2022-10-01T09:04:45.807Z,100002.40
2022-10-01T09:07:31.330Z,100000.73
2022-10-01T09:10:35.631Z,99998.39
2022-10-01T09:13:50.294Z,99991.15
2022-10-01T09:16:45.017Z,99998.20
2022-10-01T09:19:40.995Z,99990.83
2022-10-01T09:22:27.296Z,99978.84
2022-10-01T09:25:26.058Z,99977.36
2022-10-01T09:28:11.588Z,99979.77
2022-10-01T09:30:55.959Z,99974.69
2022-10-01T09:33:51.616Z,99968.98
2022-10-01T09:36:48.822Z,99965.45
2022-10-01T09:40:17.978Z,99962.38
2022-10-01T09:42:47.843Z,99952.39
2022-10-01T09:45:21.010Z,99967.63
2022-10-01T09:48:32.001Z,99965.23
2022-10-01T09:51:48.088Z,99962.46
2022-10-01T09:54:37.015Z,99960.45
2022-10-01T09:58:21.975Z,99950.41
2022-10-01T10:00:58.055Z,99946.59
2022-10-01T10:03:31.487Z,99941.02
2022-10-01T10:06:01.951Z,99939.30
2022-10-01T10:09:01.720Z,99936.69
2022-10-01T10:11:36.974Z,99936.33
2022-10-01T10:14:26.618Z,99930.49
2022-10-01T10:16:56.914Z,99921.27
2022-10-01T10:20:27.092Z,99922.64
2022-10-01T10:23:25.315Z,99914.16
2022-10-01T10:26:22.044Z,99908.56
2022-10-01T10:28:50.259Z,99903.23
2022-10-01T10:31:24.789Z,99897.63
2022-10-01T10:34:19.945Z,99884.67
2022-10-01T10:37:06.649Z,99890.94
2022-10-01T10:39:40.069Z,99889.20
2022-10-01T10:42:33.447Z,99884.91
2022-10-01T10:45:15.858Z,99881.42
2022-10-01T10:47:52.362Z,99876.26
2022-10-01T10:50:57.130Z,99870.90
2022-10-01T10:53:27.735Z,99871.73
2022-10-01T10:56:01.604Z,99860.42
2022-10-01T10:58:33.430Z,99857.77
2022-10-01T11:01:48.953Z,99857.29
2022-10-01T11:04:51.166Z,99851.25
2022-10-01T11:07:36.886Z,99848.56
2022-10-01T11:10:34.205Z,99841.85
2022-10-01T11:14:04.458Z,99839.83
2022-10-01T11:17:55.823Z,99839.22
2022-10-01T11:21:47.209Z,99835.88
2022-10-01T11:25:26.589Z,99832.46
2022-10-01T11:28:28.407Z,99830.46
2022-10-01T11:31:19.630Z,99831.60
2022-10-01T11:34:41.807Z,99824.06
2022-10-01T11:38:17.584Z,99812.05
2022-10-01T11:41:25.794Z,99798.87
2022-10-01T11:47:31.006Z,99800.48
2022-10-01T11:50:05.193Z,99795.13
2022-10-01T11:52:42.391Z,99787.86
2022-10-01T11:55:41.392Z,99786.39
2022-10-01T11:59:11.887Z,99781.45
2022-10-01T12:02:28.083Z,99784.34
2022-10-01T12:05:29.537Z,99789.54
2022-10-01T12:08:32.388Z,99790.77
2022-10-01T12:11:12.370Z,99794.23
2022-10-01T12:14:28.914Z,99799.66
2022-10-01T12:17:45.878Z,99795.19
2022-10-01T12:20:27.026Z,99784.74
2022-10-01T12:22:56.541Z,99776.57
2022-10-01T12:25:32.190Z,99767.47
2022-10-01T12:28:41.895Z,99765.45
2022-10-01T12:31:27.175Z,99759.89
2022-10-01T12:34:22.661Z,99754.15
2022-10-01T12:37:04.547Z,99753.08
2022-10-01T12:39:53.404Z,99733.97
2022-10-01T12:42:40.405Z,99753.31
2022-10-01T12:46:00.439Z,99746.74
2022-10-01T12:48:36.481Z,99737.64
2022-10-01T12:51:27.797Z,99743.83
2022-10-01T12:55:22.502Z,99740.42
2022-10-01T12:59:26.410Z,99735.83
2022-10-01T13:03:17.208Z,99739.06
2022-10-01T13:07:24.234Z,99729.84
2022-10-01T13:11:21.868Z,99718.27
2022-10-01T13:18:45.598Z,99690.76
2022-10-01T13:37:17.155Z,99665.23
2022-10-01T13:39:47.179Z,99659.67
2022-10-01T13:45:49.762Z,99659.73
2022-10-01T13:48:32.496Z,99653.41
2022-10-01T13:51:05.834Z,99647.40
2022-10-01T13:53:38.330Z,99638.95
2022-10-01T13:56:07.252Z,99630.96
2022-10-01T13:58:46.423Z,99629.63
2022-10-01T14:02:22.292Z,99624.39
2022-10-01T14:05:37.463Z,99624.22
2022-10-01T14:09:19.264Z,99627.50
2022-10-01T14:13:18.432Z,99626.94
2022-10-01T14:16:53.527Z,99616.82
2022-10-01T14:20:45.660Z,99604.83
2022-10-01T14:23:55.281Z,99596.93
2022-10-01T14:27:50.312Z,99588.75
2022-10-01T14:31:26.884Z,99580.68
2022-10-01T14:34:20.137Z,99577.99
2022-10-01T14:36:51.433Z,99573.36
2022-10-01T14:39:22.992Z,99564.21
2022-10-01T14:42:16.993Z,99556.74
2022-10-01T14:45:14.272Z,99549.63
2022-10-01T14:47:42.363Z,99547.42
2022-10-01T14:51:10.221Z,99546.40
2022-10-01T14:54:20.536Z,99545.45
2022-10-01T14:58:09.635Z,99547.14
2022-10-01T15:01:41.049Z,99541.88
2022-10-01T15:04:22.046Z,99534.86
2022-10-01T15:07:21.505Z,99532.44
2022-10-01T15:09:51.375Z,99527.84
2022-10-01T15:12:24.035Z,99522.36
2022-10-01T15:14:55.055Z,99517.23
2022-10-01T15:17:27.173Z,99524.41
2022-10-01T15:19:56.790Z,99527.81
2022-10-01T15:22:30.298Z,99528.84
2022-10-01T15:25:01.967Z,99525.65
2022-10-01T15:27:30.824Z,99523.87
2022-10-01T15:30:00.261Z,99522.40
2022-10-01T15:32:28.975Z,99523.40
2022-10-01T15:35:01.135Z,99516.99
2022-10-01T15:37:35.818Z,99507.27
2022-10-01T15:40:23.421Z,99503.42
2022-10-01T15:43:24.413Z,99506.16
2022-10-01T15:46:25.549Z,99500.05
2022-10-01T15:49:15.265Z,99500.31
2022-10-01T15:52:47.998Z,99485.39
2022-10-01T15:56:13.229Z,99494.48
2022-10-01T15:59:13.068Z,99485.42
2022-10-01T16:01:41.336Z,99476.44
2022-10-01T16:04:12.800Z,99470.03
2022-10-01T16:06:48.993Z,99464.70
2022-10-01T16:09:23.238Z,99457.73
2022-10-01T16:11:53.602Z,99453.29
2022-10-01T16:14:30.315Z,99451.96
2022-10-01T16:18:18.833Z,99457.48
2022-10-01T16:22:09.742Z,99443.52
2022-10-01T16:25:57.501Z,99448.21
2022-10-01T16:33:04.584Z,99432.60
2022-10-01T16:36:40.464Z,99425.84
2022-10-01T16:40:03.462Z,99422.02
2022-10-01T16:42:34.268Z,99409.80
2022-10-01T16:45:43.805Z,99403.27
2022-10-01T16:48:39.782Z,99396.61
2022-10-01T16:52:25.091Z,99395.25
2022-10-01T16:56:24.854Z,99385.71
2022-10-01T16:59:43.594Z,99380.29
2022-10-01T17:03:33.070Z,99372.94
2022-10-01T17:06:30.185Z,99376.35
2022-10-01T17:10:19.411Z,99350.89
2022-10-01T17:13:49.261Z,99359.45
2022-10-01T17:17:06.715Z,99361.93
2022-10-01T17:20:17.708Z,99364.89
2022-10-01T17:23:52.598Z,99364.67
2022-10-01T17:26:45.552Z,99359.52
2022-10-01T17:29:18.749Z,99351.52
2022-10-01T17:31:54.372Z,99342.14
2022-10-01T17:34:23.774Z,99336.17
2022-10-01T17:37:28.675Z,99331.52
2022-10-01T17:40:30.750Z,99331.40
2022-10-01T17:42:59.263Z,99325.52
2022-10-01T17:45:27.637Z,99324.96
2022-10-01T17:47:56.786Z,99320.52
2022-10-01T17:50:26.226Z,99318.08
2022-10-01T17:53:15.359Z,99324.23
2022-10-01T17:56:46.681Z,99325.06
2022-10-01T17:59:40.741Z,99315.66
2022-10-01T18:02:39.689Z,99308.16
2022-10-01T18:05:12.503Z,99306.83
2022-10-01T18:07:49.026Z,99304.83
2022-10-01T18:10:24.495Z,99299.54
2022-10-01T18:12:55.383Z,99290.25
2022-10-01T18:15:28.297Z,99287.79
2022-10-01T18:19:51.288Z,99279.36
2022-10-01T18:21:34.469Z,99271.31
2022-10-01T18:24:07.106Z,99266.35
2022-10-01T18:27:31.149Z,99267.07
2022-10-01T18:30:16.659Z,99256.95
2022-10-01T18:33:17.344Z,99250.20
2022-10-01T18:36:13.349Z,99251.46
2022-10-01T18:38:42.984Z,99251.79
2022-10-01T18:41:26.730Z,99246.16
2022-10-01T18:43:54.959Z,99239.05
2022-10-01T18:46:40.165Z,99232.90
2022-10-01T18:49:48.781Z,99229.44
2022-10-01T18:53:08.946Z,99222.10
2022-10-01T18:56:51.017Z,99212.88
2022-10-01T19:00:23.108Z,99207.01
2022-10-01T19:03:09.223Z,99203.20
2022-10-01T19:05:47.535Z,99194.49
2022-10-01T19:08:31.264Z,99188.71
2022-10-01T19:11:25.583Z,99180.96
2022-10-01T19:14:16.567Z,99175.63
2022-10-01T19:17:28.225Z,99171.83
2022-10-01T19:21:12.943Z,99162.66
2022-10-01T19:58:27.049Z,99100.35
2022-10-01T20:01:47.581Z,99092.19
2022-10-01T20:05:19.379Z,99087.80
2022-10-01T20:08:16.915Z,99086.81
2022-10-01T20:12:08.439Z,99083.69
2022-10-01T20:15:45.302Z,99081.84
2022-10-01T20:18:46.272Z,99075.42
2022-10-01T20:22:03.207Z,99070.73
2022-10-01T20:25:15.507Z,99037.48
2022-10-01T20:28:32.861Z,99054.20
2022-10-01T20:47:19.411Z,99029.98
2022-10-01T20:53:27.105Z,99025.80
2022-10-01T20:56:02.579Z,99021.36
2022-10-01T20:58:44.923Z,99017.59
2022-10-01T21:01:53.585Z,99016.52
2022-10-01T21:05:09.315Z,99004.00
2022-10-01T21:08:32.825Z,99005.46
2022-10-01T21:11:07.752Z,98998.63
2022-10-01T21:13:49.514Z,98993.14
2022-10-01T21:16:37.335Z,98984.92
2022-10-01T21:20:22.093Z,98982.36
2022-10-01T21:23:22.866Z,98977.58
2022-10-01T21:26:41.123Z,98980.94
2022-10-01T21:30:07.807Z,98981.52
2022-10-01T21:33:36.947Z,98964.69
2022-10-01T21:37:07.604Z,98959.02
2022-10-01T21:41:08.773Z,98952.42
2022-10-01T21:45:06.563Z,98956.06
2022-10-01T21:48:37.722Z,98955.92
2022-10-01T21:52:18.620Z,98953.54
2022-10-01T21:54:46.751Z,98949.55
2022-10-01T21:57:51.575Z,98950.08
2022-10-01T22:00:28.448Z,98945.44
2022-10-01T22:03:28.984Z,98952.52
2022-10-01T22:06:38.385Z,98964.48
2022-10-01T22:09:57.580Z,98964.94
2022-10-01T22:13:46.107Z,98977.73
2022-10-01T22:17:15.435Z,98984.08
2022-10-01T22:20:18.126Z,98988.98
2022-10-01T22:23:50.772Z,98996.80
2022-10-01T22:27:17.842Z,99010.54
2022-10-01T22:31:06.231Z,99035.84
2022-10-01T22:34:41.143Z,99054.52
2022-10-01T22:38:00.576Z,99057.50
2022-10-01T22:40:56.563Z,99041.84
2022-10-01T22:44:25.339Z,99034.54
2022-10-01T22:48:32.580Z,99023.98
2022-10-01T22:52:21.326Z,99018.73
2022-10-01T22:56:13.066Z,99021.16
2022-10-01T23:00:08.681Z,99005.77
2022-10-01T23:37:01.660Z,98895.70
2022-10-01T23:39:32.094Z,98903.92
2022-10-01T23:42:18.527Z,98883.70
2022-10-01T23:46:05.013Z,98896.46
2022-10-01T23:49:57.231Z,98913.25
2022-10-01T23:53:52.173Z,98921.79
2022-10-01T23:57:47.070Z,98921.14
